sensor_id;sensor_type;location;lat;lon;timestamp;P1;durP1;ratioP1;P2;durP2;ratioP2
51475;SDS011;37554;50.362;7.568;2023-08-12T00:01:51;4.22;;;2.35;;
51475;SDS011;37554;50.362;7.568;2023-08-12T00:04:17;4.40;;;2.50;;
51475;SDS011;37554;50.362;7.568;2023-08-12T00:06:42;4.03;;;2.40;;
51475;SDS011;37554;50.362;7.568;2023-08-12T00:09:08;4.28;;;2.63;;
51475;SDS011;37554;50.362;7.568;2023-08-12T00:11:36;9.20;;;2.42;;
51475;SDS011;37554;50.362;7.568;2023-08-12T00:14:03;3.72;;;2.30;;
51475;SDS011;37554;50.362;7.568;2023-08-12T00:16:29;5.90;;;2.38;;
51475;SDS011;37554;50.362;7.568;2023-08-12T00:18:54;3.75;;;2.38;;
51475;SDS011;37554;50.362;7.568;2023-08-12T00:21:20;5.25;;;2.20;;
51475;SDS011;37554;50.362;7.568;2023-08-12T00:23:45;5.07;;;2.47;;
51475;SDS011;37554;50.362;7.568;2023-08-12T00:26:12;7.15;;;2.42;;
51475;SDS011;37554;50.362;7.568;2023-08-12T00:28:38;3.47;;;2.00;;
51475;SDS011;37554;50.362;7.568;2023-08-12T00:31:04;3.28;;;2.10;;
51475;SDS011;37554;50.362;7.568;2023-08-12T00:33:30;4.15;;;2.30;;
51475;SDS011;37554;50.362;7.568;2023-08-12T00:35:55;3.65;;;2.10;;
51475;SDS011;37554;50.362;7.568;2023-08-12T00:38:21;3.08;;;2.42;;
51475;SDS011;37554;50.362;7.568;2023-08-12T00:40:47;3.42;;;2.17;;
51475;SDS011;37554;50.362;7.568;2023-08-12T00:43:12;4.15;;;2.05;;
51475;SDS011;37554;50.362;7.568;2023-08-12T00:45:38;4.75;;;2.20;;
51475;SDS011;37554;50.362;7.568;2023-08-12T00:48:04;6.70;;;2.50;;
51475;SDS011;37554;50.362;7.568;2023-08-12T00:50:30;3.40;;;2.47;;
51475;SDS011;37554;50.362;7.568;2023-08-12T00:52:57;3.30;;;2.13;;
51475;SDS011;37554;50.362;7.568;2023-08-12T00:55:24;3.25;;;2.38;;
51475;SDS011;37554;50.362;7.568;2023-08-12T00:57:50;3.60;;;2.50;;
51475;SDS011;37554;50.362;7.568;2023-08-12T01:00:16;3.30;;;2.38;;
51475;SDS011;37554;50.362;7.568;2023-08-12T01:02:47;4.90;;;2.70;;
51475;SDS011;37554;50.362;7.568;2023-08-12T01:05:14;3.30;;;2.20;;
51475;SDS011;37554;50.362;7.568;2023-08-12T01:07:42;5.95;;;2.60;;
51475;SDS011;37554;50.362;7.568;2023-08-12T01:10:07;5.00;;;2.55;;
51475;SDS011;37554;50.362;7.568;2023-08-12T01:12:45;2.40;;;2.20;;
51475;SDS011;37554;50.362;7.568;2023-08-12T01:15:22;7.75;;;2.30;;
51475;SDS011;37554;50.362;7.568;2023-08-12T01:17:50;3.92;;;2.53;;
51475;SDS011;37554;50.362;7.568;2023-08-12T01:20:20;4.03;;;2.53;;
51475;SDS011;37554;50.362;7.568;2023-08-12T01:22:52;5.10;;;2.40;;
51475;SDS011;37554;50.362;7.568;2023-08-12T01:25:34;3.63;;;2.47;;
51475;SDS011;37554;50.362;7.568;2023-08-12T01:28:00;3.60;;;2.53;;
51475;SDS011;37554;50.362;7.568;2023-08-12T01:30:26;5.53;;;2.70;;
51475;SDS011;37554;50.362;7.568;2023-08-12T01:35:39;6.93;;;2.60;;
51475;SDS011;37554;50.362;7.568;2023-08-12T01:38:12;6.25;;;2.63;;
51475;SDS011;37554;50.362;7.568;2023-08-12T01:40:38;4.18;;;2.60;;
51475;SDS011;37554;50.362;7.568;2023-08-12T01:43:05;4.13;;;2.78;;
51475;SDS011;37554;50.362;7.568;2023-08-12T01:45:33;5.18;;;3.15;;
51475;SDS011;37554;50.362;7.568;2023-08-12T01:47:59;4.95;;;3.20;;
51475;SDS011;37554;50.362;7.568;2023-08-12T01:50:24;5.20;;;2.92;;
51475;SDS011;37554;50.362;7.568;2023-08-12T01:52:50;8.23;;;3.20;;
51475;SDS011;37554;50.362;7.568;2023-08-12T01:55:16;5.78;;;2.97;;
51475;SDS011;37554;50.362;7.568;2023-08-12T01:57:42;4.93;;;3.60;;
51475;SDS011;37554;50.362;7.568;2023-08-12T02:00:07;5.50;;;3.28;;
51475;SDS011;37554;50.362;7.568;2023-08-12T02:02:33;3.20;;;2.90;;
51475;SDS011;37554;50.362;7.568;2023-08-12T02:04:59;3.90;;;3.28;;
51475;SDS011;37554;50.362;7.568;2023-08-12T02:07:25;3.60;;;2.97;;
51475;SDS011;37554;50.362;7.568;2023-08-12T02:09:51;3.50;;;3.20;;
51475;SDS011;37554;50.362;7.568;2023-08-12T02:12:16;4.55;;;3.03;;
51475;SDS011;37554;50.362;7.568;2023-08-12T02:14:42;3.15;;;2.80;;
51475;SDS011;37554;50.362;7.568;2023-08-12T02:17:08;3.47;;;3.08;;
51475;SDS011;37554;50.362;7.568;2023-08-12T02:19:33;3.55;;;3.25;;
51475;SDS011;37554;50.362;7.568;2023-08-12T02:21:59;3.10;;;2.83;;
51475;SDS011;37554;50.362;7.568;2023-08-12T02:24:29;4.95;;;3.42;;
51475;SDS011;37554;50.362;7.568;2023-08-12T02:26:54;6.00;;;3.40;;
51475;SDS011;37554;50.362;7.568;2023-08-12T02:29:20;3.20;;;2.83;;
51475;SDS011;37554;50.362;7.568;2023-08-12T02:31:46;4.93;;;2.60;;
51475;SDS011;37554;50.362;7.568;2023-08-12T02:34:11;3.78;;;3.13;;
51475;SDS011;37554;50.362;7.568;2023-08-12T02:36:37;2.83;;;2.53;;
51475;SDS011;37554;50.362;7.568;2023-08-12T02:39:02;4.28;;;2.80;;
51475;SDS011;37554;50.362;7.568;2023-08-12T02:41:29;3.60;;;2.58;;
51475;SDS011;37554;50.362;7.568;2023-08-12T02:43:55;3.28;;;2.90;;
51475;SDS011;37554;50.362;7.568;2023-08-12T02:46:21;3.03;;;2.70;;
51475;SDS011;37554;50.362;7.568;2023-08-12T02:48:46;3.05;;;2.50;;
51475;SDS011;37554;50.362;7.568;2023-08-12T02:51:12;4.53;;;2.88;;
51475;SDS011;37554;50.362;7.568;2023-08-12T02:53:38;4.15;;;2.78;;
51475;SDS011;37554;50.362;7.568;2023-08-12T02:56:04;3.03;;;2.72;;
51475;SDS011;37554;50.362;7.568;2023-08-12T02:58:29;3.00;;;2.60;;
51475;SDS011;37554;50.362;7.568;2023-08-12T03:00:55;3.17;;;2.35;;
51475;SDS011;37554;50.362;7.568;2023-08-12T03:03:21;4.45;;;2.55;;
51475;SDS011;37554;50.362;7.568;2023-08-12T03:05:47;3.83;;;2.50;;
51475;SDS011;37554;50.362;7.568;2023-08-12T03:08:14;3.00;;;2.45;;
51475;SDS011;37554;50.362;7.568;2023-08-12T03:10:40;3.35;;;2.55;;
51475;SDS011;37554;50.362;7.568;2023-08-12T03:13:06;2.67;;;2.47;;
51475;SDS011;37554;50.362;7.568;2023-08-12T03:15:32;2.72;;;2.30;;
51475;SDS011;37554;50.362;7.568;2023-08-12T03:17:57;2.63;;;2.20;;
51475;SDS011;37554;50.362;7.568;2023-08-12T03:20:23;2.75;;;2.25;;
51475;SDS011;37554;50.362;7.568;2023-08-12T03:22:49;2.30;;;2.10;;
51475;SDS011;37554;50.362;7.568;2023-08-12T03:25:14;3.22;;;2.33;;
51475;SDS011;37554;50.362;7.568;2023-08-12T03:27:40;4.65;;;2.30;;
51475;SDS011;37554;50.362;7.568;2023-08-12T03:30:06;2.40;;;2.20;;
51475;SDS011;37554;50.362;7.568;2023-08-12T03:32:33;2.30;;;2.10;;
51475;SDS011;37554;50.362;7.568;2023-08-12T03:34:58;2.10;;;1.90;;
51475;SDS011;37554;50.362;7.568;2023-08-12T03:37:25;3.22;;;2.50;;
51475;SDS011;37554;50.362;7.568;2023-08-12T03:39:50;5.80;;;2.13;;
51475;SDS011;37554;50.362;7.568;2023-08-12T03:42:16;2.75;;;2.03;;
51475;SDS011;37554;50.362;7.568;2023-08-12T03:44:42;1.88;;;1.77;;
51475;SDS011;37554;50.362;7.568;2023-08-12T03:47:08;3.60;;;2.30;;
51475;SDS011;37554;50.362;7.568;2023-08-12T03:49:34;2.53;;;1.83;;
51475;SDS011;37554;50.362;7.568;2023-08-12T03:52:00;2.10;;;2.00;;
51475;SDS011;37554;50.362;7.568;2023-08-12T03:54:25;2.38;;;1.60;;
51475;SDS011;37554;50.362;7.568;2023-08-12T03:56:51;1.58;;;1.42;;
51475;SDS011;37554;50.362;7.568;2023-08-12T03:59:17;2.03;;;1.80;;
51475;SDS011;37554;50.362;7.568;2023-08-12T04:01:42;1.92;;;1.75;;
51475;SDS011;37554;50.362;7.568;2023-08-12T04:04:08;2.15;;;1.80;;
51475;SDS011;37554;50.362;7.568;2023-08-12T04:06:34;1.73;;;1.63;;
51475;SDS011;37554;50.362;7.568;2023-08-12T04:08:59;2.00;;;1.75;;
51475;SDS011;37554;50.362;7.568;2023-08-12T04:11:25;1.80;;;1.63;;
51475;SDS011;37554;50.362;7.568;2023-08-12T04:13:51;2.00;;;1.67;;
51475;SDS011;37554;50.362;7.568;2023-08-12T04:16:16;1.77;;;1.50;;
51475;SDS011;37554;50.362;7.568;2023-08-12T04:18:42;2.47;;;1.70;;
51475;SDS011;37554;50.362;7.568;2023-08-12T04:21:08;2.08;;;1.88;;
51475;SDS011;37554;50.362;7.568;2023-08-12T04:23:33;2.15;;;1.60;;
51475;SDS011;37554;50.362;7.568;2023-08-12T04:25:59;1.92;;;1.80;;
51475;SDS011;37554;50.362;7.568;2023-08-12T04:28:25;2.88;;;1.70;;
51475;SDS011;37554;50.362;7.568;2023-08-12T04:30:50;3.65;;;1.63;;
51475;SDS011;37554;50.362;7.568;2023-08-12T04:33:17;2.35;;;1.50;;
51475;SDS011;37554;50.362;7.568;2023-08-12T04:35:45;2.90;;;1.50;;
51475;SDS011;37554;50.362;7.568;2023-08-12T04:38:10;1.88;;;1.65;;
51475;SDS011;37554;50.362;7.568;2023-08-12T04:40:39;2.38;;;1.48;;
51475;SDS011;37554;50.362;7.568;2023-08-12T04:43:05;1.77;;;1.50;;
51475;SDS011;37554;50.362;7.568;2023-08-12T04:45:32;3.10;;;1.80;;
51475;SDS011;37554;50.362;7.568;2023-08-12T04:47:57;1.90;;;1.52;;
51475;SDS011;37554;50.362;7.568;2023-08-12T04:50:24;1.30;;;1.17;;
51475;SDS011;37554;50.362;7.568;2023-08-12T04:52:50;2.17;;;1.65;;
51475;SDS011;37554;50.362;7.568;2023-08-12T04:55:16;2.45;;;1.63;;
51475;SDS011;37554;50.362;7.568;2023-08-12T04:57:42;2.95;;;1.67;;
51475;SDS011;37554;50.362;7.568;2023-08-12T05:00:07;1.75;;;1.30;;
51475;SDS011;37554;50.362;7.568;2023-08-12T05:02:34;2.97;;;1.60;;
51475;SDS011;37554;50.362;7.568;2023-08-12T05:04:59;1.60;;;1.50;;
51475;SDS011;37554;50.362;7.568;2023-08-12T05:07:25;1.55;;;1.45;;
51475;SDS011;37554;50.362;7.568;2023-08-12T05:09:51;1.30;;;1.20;;
51475;SDS011;37554;50.362;7.568;2023-08-12T05:12:17;1.52;;;1.42;;
51475;SDS011;37554;50.362;7.568;2023-08-12T05:14:43;3.20;;;1.45;;
51475;SDS011;37554;50.362;7.568;2023-08-12T05:17:08;2.70;;;1.20;;
51475;SDS011;37554;50.362;7.568;2023-08-12T05:19:34;1.50;;;1.40;;
51475;SDS011;37554;50.362;7.568;2023-08-12T05:22:00;1.50;;;1.40;;
51475;SDS011;37554;50.362;7.568;2023-08-12T05:24:25;2.17;;;1.40;;
51475;SDS011;37554;50.362;7.568;2023-08-12T05:26:51;1.55;;;1.35;;
51475;SDS011;37554;50.362;7.568;2023-08-12T05:29:16;2.30;;;1.73;;
51475;SDS011;37554;50.362;7.568;2023-08-12T05:31:42;2.03;;;1.42;;
51475;SDS011;37554;50.362;7.568;2023-08-12T05:34:08;1.50;;;1.40;;
51475;SDS011;37554;50.362;7.568;2023-08-12T05:36:33;1.50;;;1.33;;
51475;SDS011;37554;50.362;7.568;2023-08-12T05:39:00;1.67;;;1.48;;
51475;SDS011;37554;50.362;7.568;2023-08-12T05:41:25;2.17;;;1.40;;
51475;SDS011;37554;50.362;7.568;2023-08-12T05:43:51;2.30;;;1.40;;
51475;SDS011;37554;50.362;7.568;2023-08-12T05:46:17;2.60;;;1.35;;
51475;SDS011;37554;50.362;7.568;2023-08-12T05:48:42;1.65;;;1.48;;
51475;SDS011;37554;50.362;7.568;2023-08-12T05:51:08;3.45;;;1.70;;
51475;SDS011;37554;50.362;7.568;2023-08-12T05:53:34;2.17;;;1.63;;
51475;SDS011;37554;50.362;7.568;2023-08-12T05:55:59;2.83;;;1.40;;
51475;SDS011;37554;50.362;7.568;2023-08-12T05:58:25;2.85;;;1.80;;
51475;SDS011;37554;50.362;7.568;2023-08-12T06:00:51;2.00;;;1.50;;
51475;SDS011;37554;50.362;7.568;2023-08-12T06:03:16;3.45;;;1.70;;
51475;SDS011;37554;50.362;7.568;2023-08-12T06:05:43;1.95;;;1.70;;
51475;SDS011;37554;50.362;7.568;2023-08-12T06:08:10;2.58;;;1.27;;
51475;SDS011;37554;50.362;7.568;2023-08-12T06:10:36;1.33;;;1.23;;
51475;SDS011;37554;50.362;7.568;2023-08-12T06:13:01;1.98;;;1.40;;
51475;SDS011;37554;50.362;7.568;2023-08-12T06:15:27;1.52;;;1.30;;
51475;SDS011;37554;50.362;7.568;2023-08-12T06:17:52;1.52;;;1.42;;
51475;SDS011;37554;50.362;7.568;2023-08-12T06:20:18;1.55;;;1.25;;
51475;SDS011;37554;50.362;7.568;2023-08-12T06:22:44;2.03;;;1.70;;
51475;SDS011;37554;50.362;7.568;2023-08-12T06:25:09;1.45;;;1.17;;
51475;SDS011;37554;50.362;7.568;2023-08-12T06:27:35;2.15;;;1.40;;
51475;SDS011;37554;50.362;7.568;2023-08-12T06:30:01;1.83;;;1.60;;
51475;SDS011;37554;50.362;7.568;2023-08-12T06:32:26;1.40;;;1.20;;
51475;SDS011;37554;50.362;7.568;2023-08-12T06:34:52;3.20;;;1.35;;
51475;SDS011;37554;50.362;7.568;2023-08-12T06:37:17;1.45;;;1.35;;
51475;SDS011;37554;50.362;7.568;2023-08-12T06:39:43;2.47;;;1.80;;
51475;SDS011;37554;50.362;7.568;2023-08-12T06:42:08;1.73;;;1.48;;
51475;SDS011;37554;50.362;7.568;2023-08-12T06:44:34;2.00;;;1.33;;
51475;SDS011;37554;50.362;7.568;2023-08-12T06:46:59;2.00;;;1.63;;
51475;SDS011;37554;50.362;7.568;2023-08-12T06:49:25;1.92;;;1.50;;
51475;SDS011;37554;50.362;7.568;2023-08-12T06:51:51;5.38;;;2.63;;
51475;SDS011;37554;50.362;7.568;2023-08-12T06:54:16;3.25;;;2.38;;
51475;SDS011;37554;50.362;7.568;2023-08-12T06:56:42;4.47;;;2.40;;
51475;SDS011;37554;50.362;7.568;2023-08-12T06:59:07;4.03;;;2.33;;
51475;SDS011;37554;50.362;7.568;2023-08-12T07:01:33;2.20;;;2.05;;
51475;SDS011;37554;50.362;7.568;2023-08-12T07:03:59;2.20;;;2.00;;
51475;SDS011;37554;50.362;7.568;2023-08-12T07:06:25;2.63;;;2.17;;
51475;SDS011;37554;50.362;7.568;2023-08-12T07:08:51;2.42;;;1.98;;
51475;SDS011;37554;50.362;7.568;2023-08-12T07:11:17;3.05;;;2.55;;
51475;SDS011;37554;50.362;7.568;2023-08-12T07:13:42;2.50;;;2.28;;
51475;SDS011;37554;50.362;7.568;2023-08-12T07:16:11;2.50;;;2.05;;
51475;SDS011;37554;50.362;7.568;2023-08-12T07:18:37;3.47;;;2.33;;
51475;SDS011;37554;50.362;7.568;2023-08-12T07:21:03;2.92;;;2.50;;
51475;SDS011;37554;50.362;7.568;2023-08-12T07:23:28;4.32;;;2.25;;
51475;SDS011;37554;50.362;7.568;2023-08-12T07:25:54;4.07;;;2.25;;
51475;SDS011;37554;50.362;7.568;2023-08-12T07:28:20;2.35;;;1.85;;
51475;SDS011;37554;50.362;7.568;2023-08-12T07:30:47;3.13;;;2.45;;
51475;SDS011;37554;50.362;7.568;2023-08-12T07:33:14;3.05;;;2.60;;
51475;SDS011;37554;50.362;7.568;2023-08-12T07:35:39;2.67;;;2.47;;
51475;SDS011;37554;50.362;7.568;2023-08-12T07:38:06;3.55;;;2.70;;
51475;SDS011;37554;50.362;7.568;2023-08-12T07:40:32;2.47;;;2.28;;
51475;SDS011;37554;50.362;7.568;2023-08-12T07:42:57;4.78;;;2.30;;
51475;SDS011;37554;50.362;7.568;2023-08-12T07:45:23;2.97;;;2.50;;
51475;SDS011;37554;50.362;7.568;2023-08-12T07:47:49;3.28;;;2.88;;
51475;SDS011;37554;50.362;7.568;2023-08-12T07:50:15;4.72;;;2.33;;
51475;SDS011;37554;50.362;7.568;2023-08-12T07:52:41;3.38;;;2.78;;
51475;SDS011;37554;50.362;7.568;2023-08-12T07:55:06;2.78;;;2.20;;
51475;SDS011;37554;50.362;7.568;2023-08-12T07:57:32;2.53;;;2.28;;
51475;SDS011;37554;50.362;7.568;2023-08-12T07:59:58;3.58;;;2.20;;
51475;SDS011;37554;50.362;7.568;2023-08-12T08:02:23;2.58;;;2.15;;
51475;SDS011;37554;50.362;7.568;2023-08-12T08:04:49;2.10;;;1.80;;
51475;SDS011;37554;50.362;7.568;2023-08-12T08:07:15;2.25;;;1.90;;
51475;SDS011;37554;50.362;7.568;2023-08-12T08:09:41;2.80;;;2.33;;
51475;SDS011;37554;50.362;7.568;2023-08-12T08:12:08;2.90;;;1.85;;
51475;SDS011;37554;50.362;7.568;2023-08-12T08:14:35;2.80;;;1.95;;
51475;SDS011;37554;50.362;7.568;2023-08-12T08:17:01;2.20;;;2.00;;
51475;SDS011;37554;50.362;7.568;2023-08-12T08:19:27;3.10;;;1.92;;
51475;SDS011;37554;50.362;7.568;2023-08-12T08:21:53;2.03;;;1.92;;
51475;SDS011;37554;50.362;7.568;2023-08-12T08:24:18;2.50;;;1.92;;
51475;SDS011;37554;50.362;7.568;2023-08-12T08:26:44;2.38;;;2.17;;
51475;SDS011;37554;50.362;7.568;2023-08-12T08:29:11;2.72;;;2.30;;
51475;SDS011;37554;50.362;7.568;2023-08-12T08:31:37;2.50;;;2.30;;
51475;SDS011;37554;50.362;7.568;2023-08-12T08:34:03;3.13;;;2.28;;
51475;SDS011;37554;50.362;7.568;2023-08-12T08:36:29;2.38;;;2.00;;
51475;SDS011;37554;50.362;7.568;2023-08-12T08:38:55;1.38;;;1.30;;
51475;SDS011;37554;50.362;7.568;2023-08-12T08:41:20;2.08;;;1.50;;
51475;SDS011;37554;50.362;7.568;2023-08-12T08:43:49;2.20;;;1.23;;
51475;SDS011;37554;50.362;7.568;2023-08-12T08:46:19;1.80;;;1.05;;
51475;SDS011;37554;50.362;7.568;2023-08-12T08:48:45;1.63;;;1.52;;
51475;SDS011;37554;50.362;7.568;2023-08-12T08:51:13;2.10;;;1.48;;
51475;SDS011;37554;50.362;7.568;2023-08-12T08:53:39;1.35;;;1.25;;
51475;SDS011;37554;50.362;7.568;2023-08-12T08:56:06;1.92;;;1.58;;
51475;SDS011;37554;50.362;7.568;2023-08-12T08:58:36;2.42;;;1.55;;
51475;SDS011;37554;50.362;7.568;2023-08-12T09:01:03;1.63;;;1.52;;
51475;SDS011;37554;50.362;7.568;2023-08-12T13:25:19;1.02;;;0.77;;
51475;SDS011;37554;50.362;7.568;2023-08-12T13:27:45;1.67;;;1.17;;
51475;SDS011;37554;50.362;7.568;2023-08-12T13:30:11;1.88;;;1.40;;
51475;SDS011;37554;50.362;7.568;2023-08-12T13:32:37;1.55;;;1.20;;
51475;SDS011;37554;50.362;7.568;2023-08-12T13:35:03;1.77;;;1.30;;
51475;SDS011;37554;50.362;7.568;2023-08-12T13:37:30;1.30;;;1.05;;
51475;SDS011;37554;50.362;7.568;2023-08-12T13:39:56;1.23;;;1.10;;
51475;SDS011;37554;50.362;7.568;2023-08-12T13:42:22;1.67;;;1.15;;
51475;SDS011;37554;50.362;7.568;2023-08-12T13:44:47;1.73;;;1.00;;
51475;SDS011;37554;50.362;7.568;2023-08-12T13:47:13;1.45;;;0.95;;
51475;SDS011;37554;50.362;7.568;2023-08-12T13:49:39;1.23;;;1.00;;
51475;SDS011;37554;50.362;7.568;2023-08-12T13:52:04;1.10;;;0.73;;
51475;SDS011;37554;50.362;7.568;2023-08-12T13:54:30;1.80;;;1.10;;
51475;SDS011;37554;50.362;7.568;2023-08-12T13:56:56;1.13;;;0.85;;
51475;SDS011;37554;50.362;7.568;2023-08-12T13:59:21;1.00;;;0.90;;
51475;SDS011;37554;50.362;7.568;2023-08-12T14:01:47;1.50;;;0.70;;
51475;SDS011;37554;50.362;7.568;2023-08-12T14:04:12;1.55;;;0.77;;
51475;SDS011;37554;50.362;7.568;2023-08-12T14:06:38;0.93;;;0.65;;
51475;SDS011;37554;50.362;7.568;2023-08-12T14:09:05;2.05;;;0.50;;
51475;SDS011;37554;50.362;7.568;2023-08-12T14:11:32;0.75;;;0.60;;
51475;SDS011;37554;50.362;7.568;2023-08-12T14:13:58;1.08;;;0.70;;
51475;SDS011;37554;50.362;7.568;2023-08-12T14:16:24;1.35;;;0.60;;
51475;SDS011;37554;50.362;7.568;2023-08-12T14:18:49;0.95;;;0.70;;
51475;SDS011;37554;50.362;7.568;2023-08-12T14:21:15;3.63;;;0.70;;
51475;SDS011;37554;50.362;7.568;2023-08-12T14:23:41;1.02;;;0.80;;
51475;SDS011;37554;50.362;7.568;2023-08-12T14:26:06;1.33;;;0.80;;
51475;SDS011;37554;50.362;7.568;2023-08-12T14:28:32;0.93;;;0.70;;
51475;SDS011;37554;50.362;7.568;2023-08-12T14:30:57;0.98;;;0.80;;
51475;SDS011;37554;50.362;7.568;2023-08-12T14:33:23;2.05;;;1.15;;
51475;SDS011;37554;50.362;7.568;2023-08-12T14:35:50;1.25;;;1.00;;
51475;SDS011;37554;50.362;7.568;2023-08-12T14:38:19;2.83;;;0.90;;
51475;SDS011;37554;50.362;7.568;2023-08-12T14:40:48;2.38;;;0.70;;
51475;SDS011;37554;50.362;7.568;2023-08-12T14:43:13;1.77;;;0.93;;
51475;SDS011;37554;50.362;7.568;2023-08-12T14:45:39;1.33;;;0.85;;
51475;SDS011;37554;50.362;7.568;2023-08-12T14:48:05;1.55;;;1.10;;
51475;SDS011;37554;50.362;7.568;2023-08-12T14:50:31;1.88;;;0.90;;
51475;SDS011;37554;50.362;7.568;2023-08-12T14:52:56;1.23;;;0.80;;
51475;SDS011;37554;50.362;7.568;2023-08-12T14:55:22;1.13;;;0.70;;
51475;SDS011;37554;50.362;7.568;2023-08-12T14:57:48;1.15;;;0.70;;
51475;SDS011;37554;50.362;7.568;2023-08-12T15:00:13;2.10;;;0.60;;
51475;SDS011;37554;50.362;7.568;2023-08-12T15:02:39;1.17;;;0.70;;
51475;SDS011;37554;50.362;7.568;2023-08-12T15:05:05;1.02;;;0.60;;
51475;SDS011;37554;50.362;7.568;2023-08-12T15:07:31;1.38;;;0.65;;
51475;SDS011;37554;50.362;7.568;2023-08-12T15:09:57;2.22;;;0.43;;
51475;SDS011;37554;50.362;7.568;2023-08-12T15:12:24;1.45;;;0.70;;
51475;SDS011;37554;50.362;7.568;2023-08-12T15:14:50;1.20;;;0.80;;
51475;SDS011;37554;50.362;7.568;2023-08-12T15:17:15;0.60;;;0.60;;
51475;SDS011;37554;50.362;7.568;2023-08-12T15:19:41;1.17;;;0.63;;
51475;SDS011;37554;50.362;7.568;2023-08-12T15:22:07;1.00;;;0.60;;
51475;SDS011;37554;50.362;7.568;2023-08-12T15:24:32;0.95;;;0.50;;
51475;SDS011;37554;50.362;7.568;2023-08-12T15:26:58;1.10;;;0.50;;
51475;SDS011;37554;50.362;7.568;2023-08-12T15:29:24;1.52;;;0.50;;
51475;SDS011;37554;50.362;7.568;2023-08-12T15:31:49;1.40;;;0.60;;
51475;SDS011;37554;50.362;7.568;2023-08-12T15:34:15;2.03;;;0.73;;
51475;SDS011;37554;50.362;7.568;2023-08-12T15:36:41;1.45;;;0.70;;
51475;SDS011;37554;50.362;7.568;2023-08-12T15:39:07;1.17;;;0.63;;
51475;SDS011;37554;50.362;7.568;2023-08-12T15:41:33;1.13;;;0.70;;
51475;SDS011;37554;50.362;7.568;2023-08-12T15:43:59;1.23;;;0.50;;
51475;SDS011;37554;50.362;7.568;2023-08-12T15:46:24;1.20;;;0.80;;
51475;SDS011;37554;50.362;7.568;2023-08-12T15:48:50;0.65;;;0.45;;
51475;SDS011;37554;50.362;7.568;2023-08-12T15:51:16;0.60;;;0.43;;
51475;SDS011;37554;50.362;7.568;2023-08-12T15:53:41;1.17;;;0.45;;
51475;SDS011;37554;50.362;7.568;2023-08-12T15:56:07;1.42;;;0.77;;
51475;SDS011;37554;50.362;7.568;2023-08-12T15:58:33;1.27;;;0.50;;
51475;SDS011;37554;50.362;7.568;2023-08-12T16:00:58;1.50;;;0.60;;
51475;SDS011;37554;50.362;7.568;2023-08-12T16:03:24;1.27;;;0.70;;
51475;SDS011;37554;50.362;7.568;2023-08-12T16:05:50;1.73;;;0.70;;
51475;SDS011;37554;50.362;7.568;2023-08-12T16:08:20;2.85;;;0.50;;
51475;SDS011;37554;50.362;7.568;2023-08-12T16:10:46;1.38;;;0.70;;
51475;SDS011;37554;50.362;7.568;2023-08-12T16:13:12;1.20;;;0.65;;
51475;SDS011;37554;50.362;7.568;2023-08-12T16:15:37;5.32;;;0.60;;
51475;SDS011;37554;50.362;7.568;2023-08-12T16:18:03;1.42;;;0.55;;
51475;SDS011;37554;50.362;7.568;2023-08-12T16:20:29;1.75;;;0.50;;
51475;SDS011;37554;50.362;7.568;2023-08-12T16:22:55;1.20;;;0.60;;
51475;SDS011;37554;50.362;7.568;2023-08-12T16:25:21;1.13;;;0.68;;
51475;SDS011;37554;50.362;7.568;2023-08-12T16:27:46;1.00;;;0.60;;
51475;SDS011;37554;50.362;7.568;2023-08-12T16:30:12;2.78;;;0.63;;
51475;SDS011;37554;50.362;7.568;2023-08-12T16:32:38;1.58;;;0.65;;
51475;SDS011;37554;50.362;7.568;2023-08-12T16:35:04;1.90;;;0.68;;
51475;SDS011;37554;50.362;7.568;2023-08-12T16:37:29;1.00;;;0.75;;
51475;SDS011;37554;50.362;7.568;2023-08-12T16:39:55;0.80;;;0.50;;
51475;SDS011;37554;50.362;7.568;2023-08-12T16:42:21;0.73;;;0.60;;
51475;SDS011;37554;50.362;7.568;2023-08-12T16:44:46;0.55;;;0.47;;
51475;SDS011;37554;50.362;7.568;2023-08-12T16:47:12;1.60;;;0.57;;
51475;SDS011;37554;50.362;7.568;2023-08-12T16:49:37;0.98;;;0.63;;
51475;SDS011;37554;50.362;7.568;2023-08-12T16:52:03;1.02;;;0.90;;
51475;SDS011;37554;50.362;7.568;2023-08-12T16:54:29;1.33;;;0.65;;
51475;SDS011;37554;50.362;7.568;2023-08-12T16:56:55;1.00;;;0.60;;
51475;SDS011;37554;50.362;7.568;2023-08-12T16:59:20;0.80;;;0.60;;
51475;SDS011;37554;50.362;7.568;2023-08-12T17:01:46;0.82;;;0.57;;
51475;SDS011;37554;50.362;7.568;2023-08-12T17:04:12;0.77;;;0.43;;
51475;SDS011;37554;50.362;7.568;2023-08-12T17:06:38;0.50;;;0.30;;
51475;SDS011;37554;50.362;7.568;2023-08-12T17:09:06;1.13;;;0.30;;
51475;SDS011;37554;50.362;7.568;2023-08-12T17:11:33;2.60;;;0.30;;
51475;SDS011;37554;50.362;7.568;2023-08-12T17:13:58;0.40;;;0.20;;
51475;SDS011;37554;50.362;7.568;2023-08-12T17:16:24;0.30;;;0.20;;
51475;SDS011;37554;50.362;7.568;2023-08-12T17:18:50;0.63;;;0.20;;
51475;SDS011;37554;50.362;7.568;2023-08-12T17:21:15;0.35;;;0.20;;
51475;SDS011;37554;50.362;7.568;2023-08-12T17:23:41;0.13;;;0.13;;
51475;SDS011;37554;50.362;7.568;2023-08-12T17:26:07;1.17;;;0.20;;
51475;SDS011;37554;50.362;7.568;2023-08-12T17:28:32;0.20;;;0.10;;
51475;SDS011;37554;50.362;7.568;2023-08-12T17:30:58;0.20;;;0.20;;
51475;SDS011;37554;50.362;7.568;2023-08-12T17:33:23;0.73;;;0.20;;
51475;SDS011;37554;50.362;7.568;2023-08-12T17:35:49;0.10;;;0.10;;
51475;SDS011;37554;50.362;7.568;2023-08-12T17:38:15;0.20;;;0.10;;
51475;SDS011;37554;50.362;7.568;2023-08-12T17:40:40;0.30;;;0.20;;
51475;SDS011;37554;50.362;7.568;2023-08-12T17:43:06;0.40;;;0.20;;
51475;SDS011;37554;50.362;7.568;2023-08-12T17:45:31;0.47;;;0.17;;
51475;SDS011;37554;50.362;7.568;2023-08-12T17:47:58;0.70;;;0.10;;
51475;SDS011;37554;50.362;7.568;2023-08-12T17:50:27;0.77;;;0.25;;
51475;SDS011;37554;50.362;7.568;2023-08-12T17:52:53;1.23;;;0.40;;
51475;SDS011;37554;50.362;7.568;2023-08-12T17:55:19;1.48;;;0.17;;
51475;SDS011;37554;50.362;7.568;2023-08-12T17:57:45;1.95;;;0.17;;
51475;SDS011;37554;50.362;7.568;2023-08-12T18:00:11;0.10;;;0.10;;
51475;SDS011;37554;50.362;7.568;2023-08-12T18:02:38;0.15;;;0.10;;
51475;SDS011;37554;50.362;7.568;2023-08-12T18:05:04;0.60;;;0.30;;
51475;SDS011;37554;50.362;7.568;2023-08-12T18:07:30;0.30;;;0.20;;
51475;SDS011;37554;50.362;7.568;2023-08-12T18:09:56;1.27;;;0.40;;
51475;SDS011;37554;50.362;7.568;2023-08-12T18:12:22;0.47;;;0.30;;
51475;SDS011;37554;50.362;7.568;2023-08-12T18:14:48;2.03;;;0.30;;
51475;SDS011;37554;50.362;7.568;2023-08-12T18:17:14;1.17;;;0.30;;
51475;SDS011;37554;50.362;7.568;2023-08-12T18:19:39;0.28;;;0.20;;
51475;SDS011;37554;50.362;7.568;2023-08-12T18:22:05;0.20;;;0.20;;
51475;SDS011;37554;50.362;7.568;2023-08-12T18:24:30;0.30;;;0.30;;
51475;SDS011;37554;50.362;7.568;2023-08-12T18:26:57;0.20;;;0.20;;
51475;SDS011;37554;50.362;7.568;2023-08-12T18:29:23;0.95;;;0.30;;
51475;SDS011;37554;50.362;7.568;2023-08-12T18:31:49;0.35;;;0.20;;
51475;SDS011;37554;50.362;7.568;2023-08-12T18:34:15;0.30;;;0.22;;
51475;SDS011;37554;50.362;7.568;2023-08-12T18:36:40;1.58;;;0.45;;
51475;SDS011;37554;50.362;7.568;2023-08-12T18:39:06;1.73;;;0.50;;
51475;SDS011;37554;50.362;7.568;2023-08-12T18:41:32;0.88;;;0.60;;
51475;SDS011;37554;50.362;7.568;2023-08-12T18:43:58;3.50;;;0.85;;
51475;SDS011;37554;50.362;7.568;2023-08-12T18:46:24;3.70;;;0.60;;
51475;SDS011;37554;50.362;7.568;2023-08-12T18:48:49;0.45;;;0.30;;
51475;SDS011;37554;50.362;7.568;2023-08-12T18:51:15;0.52;;;0.30;;
51475;SDS011;37554;50.362;7.568;2023-08-12T18:53:41;0.95;;;0.43;;
51475;SDS011;37554;50.362;7.568;2023-08-12T18:56:06;0.95;;;0.32;;
51475;SDS011;37554;50.362;7.568;2023-08-12T18:58:32;0.60;;;0.32;;
51475;SDS011;37554;50.362;7.568;2023-08-12T19:00:57;2.33;;;0.32;;
51475;SDS011;37554;50.362;7.568;2023-08-12T19:03:23;0.88;;;0.55;;
51475;SDS011;37554;50.362;7.568;2023-08-12T19:05:55;2.20;;;0.60;;